createdAt,value
2018-06-14T00:00:27.711Z,0.00
2018-06-14T00:01:27.648Z,0.00
2018-06-14T00:02:27.587Z,0.00
2018-06-14T00:03:27.525Z,0.00
2018-06-14T00:04:27.462Z,0.00
2018-06-14T00:05:27.401Z,0.00
2018-06-14T00:06:27.337Z,0.00
2018-06-14T00:07:27.278Z,0.00
2018-06-14T00:08:27.213Z,0.00
2018-06-14T00:09:27.151Z,0.00
2018-06-14T00:10:27.088Z,0.00
2018-06-14T00:11:27.028Z,0.00
2018-06-14T00:12:26.966Z,0.00
2018-06-14T00:13:26.902Z,0.00
2018-06-14T00:14:26.840Z,0.00
2018-06-14T00:15:26.789Z,0.00
2018-06-14T00:16:26.718Z,0.00
2018-06-14T00:17:26.704Z,0.00
2018-06-14T00:18:26.592Z,0.00
2018-06-14T00:19:26.534Z,0.00
2018-06-14T00:20:26.470Z,0.00
2018-06-14T00:21:26.404Z,0.00
2018-06-14T00:22:26.345Z,0.00
2018-06-14T00:23:26.310Z,0.00
2018-06-14T00:24:26.314Z,0.00
2018-06-14T00:25:26.157Z,0.00
2018-06-14T00:26:26.093Z,0.00
2018-06-14T00:27:26.032Z,0.00
2018-06-14T00:28:25.983Z,0.00
2018-06-14T00:29:25.913Z,0.00
2018-06-14T00:30:25.845Z,0.00
2018-06-14T00:31:25.785Z,0.00
2018-06-14T00:32:25.722Z,0.00
2018-06-14T00:33:25.658Z,0.00
2018-06-14T00:34:25.597Z,0.00
2018-06-14T00:35:25.534Z,0.00
2018-06-14T00:36:25.477Z,0.00
2018-06-14T00:37:25.410Z,0.00
2018-06-14T00:38:25.346Z,0.00
2018-06-14T00:39:25.286Z,0.00
2018-06-14T00:40:25.229Z,0.00
2018-06-14T00:41:25.162Z,0.00
2018-06-14T00:42:25.100Z,0.00
2018-06-14T00:43:25.038Z,0.00
2018-06-14T00:44:24.976Z,0.00
2018-06-14T00:45:24.913Z,0.00
2018-06-14T00:46:24.852Z,0.00
2018-06-14T00:47:24.792Z,0.00
2018-06-14T00:48:24.730Z,0.00
2018-06-14T00:49:24.664Z,0.00
2018-06-14T00:50:24.603Z,0.00
2018-06-14T00:51:24.540Z,0.00
2018-06-14T00:52:24.478Z,0.00
2018-06-14T00:53:24.414Z,0.00
2018-06-14T00:54:24.352Z,0.00
2018-06-14T00:55:24.292Z,0.00
2018-06-14T00:56:24.231Z,0.00
2018-06-14T00:57:24.168Z,0.00
2018-06-14T00:58:24.123Z,0.00
2018-06-14T00:59:24.044Z,0.00
2018-06-14T01:00:23.981Z,0.00
2018-06-14T01:01:23.924Z,0.00
2018-06-14T01:02:23.856Z,0.00
2018-06-14T01:03:23.793Z,0.00
2018-06-14T01:04:23.732Z,0.00
2018-06-14T01:05:23.668Z,0.00
2018-06-14T01:06:23.607Z,0.00
2018-06-14T01:07:23.545Z,0.00
2018-06-14T01:08:23.482Z,0.00
2018-06-14T01:09:23.419Z,0.00
2018-06-14T01:10:23.357Z,0.00
2018-06-14T01:11:23.297Z,0.00
2018-06-14T01:12:23.236Z,0.00
2018-06-14T01:13:23.172Z,0.00
2018-06-14T01:14:23.107Z,0.00
2018-06-14T01:15:23.047Z,0.00
2018-06-14T01:16:22.984Z,0.00
2018-06-14T01:17:22.917Z,0.00
2018-06-14T01:18:22.864Z,0.00
2018-06-14T01:19:22.797Z,0.00
2018-06-14T01:20:22.735Z,0.00
2018-06-14T01:21:22.675Z,0.00
2018-06-14T01:22:22.610Z,0.00
2018-06-14T01:23:22.548Z,0.00
2018-06-14T01:24:22.492Z,0.00
2018-06-14T01:25:22.424Z,0.00
2018-06-14T01:26:22.362Z,0.00
2018-06-14T01:27:22.302Z,0.00
2018-06-14T01:28:22.239Z,0.00
2018-06-14T01:29:22.173Z,0.00
2018-06-14T01:30:22.113Z,0.00
2018-06-14T01:31:22.051Z,0.00
2018-06-14T01:32:22.006Z,0.00
2018-06-14T01:33:21.926Z,0.00
2018-06-14T01:34:21.863Z,0.00
2018-06-14T01:35:21.803Z,0.00
2018-06-14T01:36:21.739Z,0.00
2018-06-14T01:37:21.678Z,0.00
2018-06-14T01:38:21.613Z,0.00
2018-06-14T01:39:21.552Z,0.00
2018-06-14T01:40:21.490Z,0.00
2018-06-14T01:41:21.426Z,0.00
2018-06-14T01:42:21.367Z,0.00
2018-06-14T01:43:21.304Z,0.00
2018-06-14T01:44:21.243Z,0.00
2018-06-14T01:45:21.179Z,0.00
2018-06-14T01:46:21.116Z,0.00
2018-06-14T01:47:21.055Z,0.00
2018-06-14T01:48:20.991Z,0.00
2018-06-14T01:49:20.929Z,0.00
2018-06-14T01:50:20.867Z,0.00
2018-06-14T01:51:20.804Z,0.00
2018-06-14T01:52:20.740Z,0.00
2018-06-14T01:53:20.679Z,0.00
2018-06-14T01:54:20.619Z,0.00
2018-06-14T01:55:20.556Z,0.00
2018-06-14T01:56:20.499Z,0.00
2018-06-14T01:57:20.430Z,0.00
2018-06-14T01:58:20.369Z,0.00
2018-06-14T01:59:20.307Z,0.00
2018-06-14T02:00:20.245Z,0.00
2018-06-14T02:01:20.182Z,0.00
2018-06-14T02:02:20.124Z,0.00
2018-06-14T02:03:20.059Z,0.00
2018-06-14T02:04:19.999Z,0.00
2018-06-14T02:05:19.933Z,0.00
2018-06-14T02:06:19.871Z,0.00
2018-06-14T02:07:19.813Z,0.00
2018-06-14T02:08:19.747Z,0.00
2018-06-14T02:09:19.684Z,0.00
2018-06-14T02:10:19.625Z,0.00
2018-06-14T02:11:19.561Z,0.00
2018-06-14T02:12:19.497Z,0.00
2018-06-14T02:13:19.437Z,0.00
2018-06-14T02:14:19.374Z,0.00
2018-06-14T02:15:19.312Z,0.00
2018-06-14T02:16:19.250Z,0.00
2018-06-14T02:17:19.190Z,0.00
2018-06-14T02:18:19.124Z,0.00
2018-06-14T02:19:19.063Z,0.00
2018-06-14T02:20:19.001Z,0.00
2018-06-14T02:21:18.938Z,0.00
2018-06-14T02:22:18.876Z,0.00
2018-06-14T02:23:18.813Z,0.00
2018-06-14T02:24:18.753Z,0.00
2018-06-14T02:25:18.689Z,0.00
2018-06-14T02:26:18.626Z,0.00
2018-06-14T02:27:18.565Z,0.00
2018-06-14T02:28:18.503Z,0.00
2018-06-14T02:29:18.445Z,0.00
2018-06-14T02:30:18.378Z,0.00
2018-06-14T02:31:18.316Z,0.00
2018-06-14T02:32:18.254Z,0.00
2018-06-14T02:33:18.190Z,0.00
2018-06-14T02:34:18.129Z,0.00
2018-06-14T02:35:18.065Z,0.00
2018-06-14T02:36:18.009Z,0.00
2018-06-14T02:37:17.947Z,0.00
2018-06-14T02:38:17.880Z,0.00
2018-06-14T02:39:17.819Z,0.00
2018-06-14T02:40:17.756Z,0.00
2018-06-14T02:41:17.702Z,0.00
2018-06-14T02:42:17.630Z,0.00
2018-06-14T02:43:17.569Z,0.00
2018-06-14T02:44:17.505Z,0.00
2018-06-14T02:45:17.444Z,0.00
2018-06-14T02:46:17.384Z,0.00
2018-06-14T02:47:17.322Z,0.00
2018-06-14T02:48:17.257Z,0.00
2018-06-14T02:49:17.194Z,0.00
2018-06-14T02:50:17.133Z,0.00
2018-06-14T02:51:17.074Z,0.00
2018-06-14T02:52:17.005Z,0.00
2018-06-14T02:53:16.944Z,0.00
2018-06-14T02:54:16.884Z,0.00
2018-06-14T02:55:16.825Z,0.00
2018-06-14T02:56:16.758Z,0.00
2018-06-14T02:57:16.698Z,0.00
2018-06-14T02:58:16.637Z,0.00
2018-06-14T02:59:16.577Z,0.00
2018-06-14T03:00:16.510Z,0.00
2018-06-14T03:01:16.455Z,0.00
2018-06-14T03:02:16.385Z,0.00
2018-06-14T03:03:16.322Z,0.00
2018-06-14T03:04:16.262Z,0.00
2018-06-14T03:05:16.202Z,0.00
2018-06-14T03:06:16.137Z,0.00
2018-06-14T03:07:16.079Z,0.00
2018-06-14T03:08:16.006Z,0.00
2018-06-14T03:09:15.950Z,0.00
2018-06-14T03:10:15.902Z,0.00
2018-06-14T03:11:15.853Z,0.00
2018-06-14T03:12:15.763Z,0.00
2018-06-14T03:13:15.700Z,0.00
2018-06-14T03:14:15.640Z,0.00
2018-06-14T03:15:15.577Z,0.00
2018-06-14T03:16:15.515Z,0.00
2018-06-14T03:17:15.449Z,0.00
2018-06-14T03:18:15.389Z,0.00
2018-06-14T03:19:15.334Z,0.00
2018-06-14T03:20:15.278Z,0.00
2018-06-14T03:21:15.202Z,0.00
2018-06-14T03:22:15.139Z,0.00
2018-06-14T03:23:15.180Z,0.00
2018-06-14T03:24:15.091Z,0.00
2018-06-14T03:25:15.002Z,0.00
2018-06-14T03:26:14.891Z,0.00
2018-06-14T03:27:14.828Z,0.00
2018-06-14T03:28:14.767Z,0.00
2018-06-14T03:29:14.701Z,0.00
2018-06-14T03:30:14.641Z,0.00
2018-06-14T03:31:14.579Z,0.00
2018-06-14T03:32:14.522Z,0.00
2018-06-14T03:33:14.456Z,0.00
2018-06-14T03:34:14.391Z,0.00
2018-06-14T03:35:14.329Z,0.00
2018-06-14T03:36:14.268Z,0.00
2018-06-14T03:37:14.203Z,0.00
2018-06-14T03:38:14.143Z,0.00
2018-06-14T03:39:14.081Z,0.00
2018-06-14T03:40:14.020Z,0.00
2018-06-14T03:41:13.955Z,0.00
2018-06-14T03:42:13.892Z,0.00
2018-06-14T03:43:13.831Z,0.00
2018-06-14T03:44:13.771Z,0.00
2018-06-14T03:45:13.707Z,0.00
2018-06-14T03:46:13.645Z,0.00
2018-06-14T03:47:13.583Z,0.00
2018-06-14T03:48:13.521Z,0.00
2018-06-14T03:49:13.456Z,0.00
2018-06-14T03:50:13.417Z,0.00
2018-06-14T03:51:13.332Z,0.00
2018-06-14T03:52:13.271Z,0.00
2018-06-14T03:53:13.208Z,0.00
2018-06-14T03:54:13.146Z,0.00
2018-06-14T03:55:13.085Z,0.00
2018-06-14T03:56:13.023Z,5.63
2018-06-14T03:57:12.960Z,5.63
2018-06-14T03:58:12.897Z,5.63
2018-06-14T03:59:12.836Z,5.63
2018-06-14T04:00:12.773Z,5.63
2018-06-14T04:01:12.713Z,5.63
2018-06-14T04:02:12.655Z,5.63
2018-06-14T04:03:12.587Z,5.63
2018-06-14T04:04:12.525Z,5.63
2018-06-14T04:05:12.460Z,5.63
2018-06-14T04:06:12.397Z,5.63
2018-06-14T04:07:12.338Z,5.63
2018-06-14T04:08:12.277Z,5.63
2018-06-14T04:09:12.212Z,5.63
2018-06-14T04:10:12.217Z,5.63
2018-06-14T04:11:12.092Z,5.63
2018-06-14T04:12:12.029Z,5.63
2018-06-14T04:13:11.962Z,5.63
2018-06-14T04:14:11.900Z,5.63
2018-06-14T04:15:11.850Z,5.63
2018-06-14T04:16:11.780Z,5.63
2018-06-14T04:17:11.713Z,5.63
2018-06-14T04:18:11.652Z,5.63
2018-06-14T04:19:11.590Z,11.25
2018-06-14T04:20:11.528Z,11.25
2018-06-14T04:21:11.465Z,11.25
2018-06-14T04:22:11.406Z,11.25
2018-06-14T04:23:11.341Z,11.25
2018-06-14T04:24:11.282Z,11.25
2018-06-14T04:25:11.217Z,11.25
2018-06-14T04:26:11.157Z,11.25
2018-06-14T04:27:11.091Z,11.25
2018-06-14T04:28:11.031Z,11.25
2018-06-14T04:29:10.966Z,11.25
2018-06-14T04:30:10.904Z,11.25
2018-06-14T04:31:10.840Z,11.25
2018-06-14T04:32:10.781Z,11.25
2018-06-14T04:33:10.717Z,11.25
2018-06-14T04:34:10.656Z,11.25
2018-06-14T04:35:10.595Z,11.25
2018-06-14T04:36:10.533Z,11.25
2018-06-14T04:37:10.469Z,11.25
2018-06-14T04:38:10.410Z,16.88
2018-06-14T04:39:10.350Z,16.88
2018-06-14T04:40:10.284Z,16.88
2018-06-14T04:41:10.221Z,16.88
2018-06-14T04:42:10.162Z,16.88
2018-06-14T04:43:10.096Z,16.88
2018-06-14T04:44:10.035Z,16.88
2018-06-14T04:45:09.974Z,16.88
2018-06-14T04:46:09.913Z,16.88
2018-06-14T04:47:09.849Z,16.88
2018-06-14T04:48:09.786Z,22.50
2018-06-14T04:49:09.725Z,22.50
2018-06-14T04:50:09.661Z,22.50
2018-06-14T04:51:09.600Z,22.50
2018-06-14T04:52:09.536Z,22.50
2018-06-14T04:53:09.476Z,22.50
2018-06-14T04:54:09.414Z,22.50
2018-06-14T04:55:09.352Z,22.50
2018-06-14T04:56:09.290Z,22.50
2018-06-14T04:57:09.225Z,22.50
2018-06-14T04:58:09.163Z,22.50
2018-06-14T04:59:09.102Z,22.50
2018-06-14T05:00:09.039Z,22.50
2018-06-14T05:01:08.976Z,22.50
2018-06-14T05:02:08.917Z,22.50
2018-06-14T05:03:08.855Z,22.50
2018-06-14T05:04:08.791Z,22.50
2018-06-14T05:05:08.729Z,22.50
2018-06-14T05:06:08.666Z,28.13
2018-06-14T05:07:08.604Z,28.13
2018-06-14T05:08:08.542Z,28.13
2018-06-14T05:09:08.479Z,28.13
2018-06-14T05:10:08.421Z,28.13
2018-06-14T05:11:08.373Z,28.13
2018-06-14T05:12:08.298Z,28.13
2018-06-14T05:13:08.233Z,28.13
2018-06-14T05:14:08.168Z,28.13
2018-06-14T05:15:08.108Z,28.13
2018-06-14T05:16:08.068Z,33.75
2018-06-14T05:17:08.021Z,33.75
2018-06-14T05:18:07.983Z,33.75
2018-06-14T05:19:07.860Z,33.75
2018-06-14T05:20:07.797Z,33.75
2018-06-14T05:21:07.736Z,33.75
2018-06-14T05:22:07.673Z,33.75
2018-06-14T05:23:07.615Z,33.75
2018-06-14T05:24:07.550Z,33.75
2018-06-14T05:25:07.488Z,33.75
2018-06-14T05:26:07.427Z,33.75
2018-06-14T05:27:07.363Z,33.75
2018-06-14T05:28:07.303Z,33.75
2018-06-14T05:29:07.241Z,33.75
2018-06-14T05:30:07.176Z,33.75
2018-06-14T05:31:07.115Z,33.75
2018-06-14T05:32:07.054Z,33.75
2018-06-14T05:33:06.991Z,39.38
2018-06-14T05:34:06.941Z,39.38
2018-06-14T05:35:06.868Z,39.38
2018-06-14T05:36:06.805Z,39.38
2018-06-14T05:37:06.741Z,39.38
2018-06-14T05:38:06.739Z,39.38
2018-06-14T05:39:06.618Z,39.38
2018-06-14T05:40:06.558Z,39.38
2018-06-14T05:41:06.495Z,39.38
2018-06-14T05:42:06.478Z,39.38
2018-06-14T05:43:06.374Z,39.38
2018-06-14T05:44:06.313Z,39.38
2018-06-14T05:45:06.246Z,39.38
2018-06-14T05:46:06.184Z,39.38
2018-06-14T05:47:06.125Z,39.38
2018-06-14T05:48:06.062Z,39.38
2018-06-14T05:49:06.001Z,39.38
2018-06-14T05:50:05.936Z,45.00
2018-06-14T05:51:05.880Z,50.63
2018-06-14T05:52:05.829Z,56.25
2018-06-14T05:53:05.752Z,61.88
2018-06-14T05:54:05.688Z,67.50
2018-06-14T05:55:05.627Z,73.13
2018-06-14T05:56:05.579Z,73.13
2018-06-14T05:57:05.513Z,73.13
2018-06-14T05:58:05.442Z,78.75
2018-06-14T05:59:05.379Z,78.75
2018-06-14T06:00:05.323Z,78.75
2018-06-14T06:01:05.254Z,78.75
2018-06-14T06:02:05.192Z,78.75
2018-06-14T06:03:05.134Z,78.75
2018-06-14T06:04:05.071Z,84.38
2018-06-14T06:05:05.005Z,84.38
2018-06-14T06:06:04.943Z,90.00
2018-06-14T06:07:04.885Z,90.00
2018-06-14T06:08:04.820Z,95.63
2018-06-14T06:09:04.757Z,106.88
2018-06-14T06:10:04.777Z,112.50
2018-06-14T06:11:04.706Z,118.13
2018-06-14T06:12:04.662Z,118.13
2018-06-14T06:13:04.513Z,112.50
2018-06-14T06:14:04.452Z,101.25
2018-06-14T06:15:04.388Z,95.63
2018-06-14T06:16:04.325Z,118.13
2018-06-14T06:17:04.264Z,118.13
2018-06-14T06:18:04.201Z,118.13
2018-06-14T06:19:04.139Z,123.75
2018-06-14T06:20:04.079Z,118.13
2018-06-14T06:21:04.016Z,118.13
2018-06-14T06:22:03.954Z,118.13
2018-06-14T06:23:03.892Z,123.75
2018-06-14T06:24:03.833Z,123.75
2018-06-14T06:25:03.770Z,123.75
2018-06-14T06:26:03.717Z,123.75
2018-06-14T06:27:03.644Z,123.75
2018-06-14T06:28:03.584Z,123.75
2018-06-14T06:29:03.522Z,123.75
2018-06-14T06:30:03.460Z,123.75
2018-06-14T06:31:03.398Z,129.38
2018-06-14T06:32:03.335Z,129.38
2018-06-14T06:33:03.272Z,135.00
2018-06-14T06:34:03.215Z,135.00
2018-06-14T06:35:03.150Z,129.38
2018-06-14T06:36:03.091Z,129.38
2018-06-14T06:37:03.026Z,129.38
2018-06-14T06:38:02.965Z,123.75
2018-06-14T06:39:02.906Z,129.38
2018-06-14T06:40:02.841Z,135.00
2018-06-14T06:41:02.778Z,129.38
2018-06-14T06:42:02.720Z,129.38
2018-06-14T06:43:02.657Z,135.00
2018-06-14T06:44:02.596Z,140.63
2018-06-14T06:45:02.585Z,129.38
2018-06-14T06:46:02.474Z,146.25
2018-06-14T06:47:02.414Z,135.00
2018-06-14T06:48:02.351Z,129.38
2018-06-14T06:49:02.289Z,123.75
2018-06-14T06:50:02.227Z,129.38
2018-06-14T06:51:02.167Z,135.00
2018-06-14T06:52:02.105Z,140.63
2018-06-14T06:53:02.105Z,151.88
2018-06-14T06:54:01.984Z,151.88
2018-06-14T06:55:01.921Z,146.25
2018-06-14T06:56:01.861Z,146.25
2018-06-14T06:57:01.807Z,151.88
2018-06-14T06:58:01.739Z,157.50
2018-06-14T06:59:01.735Z,163.13
2018-06-14T07:00:01.636Z,151.88
2018-06-14T07:01:01.552Z,157.50
2018-06-14T07:02:01.491Z,146.25
2018-06-14T07:03:01.439Z,151.88
2018-06-14T07:04:01.376Z,146.25
2018-06-14T07:05:01.307Z,146.25
2018-06-14T07:06:01.331Z,163.13
2018-06-14T07:07:01.186Z,180.00
2018-06-14T07:08:01.125Z,185.63
2018-06-14T07:09:01.063Z,180.00
2018-06-14T07:10:01.001Z,185.63
2018-06-14T07:11:00.941Z,185.63
2018-06-14T07:12:00.926Z,191.25
2018-06-14T07:13:00.818Z,174.38
2018-06-14T07:14:00.757Z,163.13
2018-06-14T07:15:00.702Z,163.13
2018-06-14T07:16:00.637Z,135.00
2018-06-14T07:17:00.575Z,123.75
2018-06-14T07:18:00.517Z,129.38
2018-06-14T07:19:00.452Z,129.38
2018-06-14T07:20:00.392Z,135.00
2018-06-14T07:21:00.338Z,135.00
2018-06-14T07:22:00.311Z,129.38
2018-06-14T07:23:00.210Z,135.00
2018-06-14T07:24:00.155Z,129.38
2018-06-14T07:25:00.088Z,135.00
2018-06-14T07:26:00.037Z,135.00
2018-06-14T07:26:59.966Z,140.63
2018-06-14T07:27:59.905Z,157.50
2018-06-14T07:28:59.843Z,157.50
2018-06-14T07:29:59.783Z,168.75
2018-06-14T07:30:59.723Z,202.50
2018-06-14T07:31:59.662Z,225.00
2018-06-14T07:32:59.599Z,236.25
2018-06-14T07:33:59.540Z,185.63
2018-06-14T07:34:59.484Z,163.13
2018-06-14T07:35:59.422Z,168.75
2018-06-14T07:36:59.357Z,157.50
2018-06-14T07:37:59.297Z,146.25
2018-06-14T07:38:59.235Z,146.25
2018-06-14T07:39:59.176Z,163.13
2018-06-14T07:40:59.117Z,174.38
2018-06-14T07:41:59.053Z,163.13
2018-06-14T07:42:59.025Z,151.88
2018-06-14T07:43:58.934Z,146.25
2018-06-14T07:44:58.873Z,146.25
2018-06-14T07:45:58.812Z,146.25
2018-06-14T07:46:58.753Z,140.63
2018-06-14T07:47:58.691Z,140.63
2018-06-14T07:48:58.631Z,140.63
2018-06-14T07:49:58.570Z,140.63
2018-06-14T07:50:58.513Z,135.00
2018-06-14T07:51:58.451Z,129.38
2018-06-14T07:52:58.389Z,123.75
2018-06-14T07:53:58.329Z,118.13
2018-06-14T07:54:58.269Z,118.13
2018-06-14T07:55:58.211Z,112.50
2018-06-14T07:56:58.148Z,112.50
2018-06-14T07:57:58.087Z,112.50
2018-06-14T07:58:58.027Z,112.50
2018-06-14T07:59:57.996Z,112.50
2018-06-14T08:00:57.922Z,106.88
2018-06-14T08:01:57.846Z,106.88
2018-06-14T08:02:57.785Z,106.88
2018-06-14T08:03:57.727Z,106.88
2018-06-14T08:04:57.665Z,106.88
2018-06-14T08:05:57.848Z,106.88
2018-06-14T08:06:57.551Z,112.50
2018-06-14T08:07:57.488Z,112.50
2018-06-14T08:08:57.423Z,118.13
2018-06-14T08:09:57.391Z,129.38
2018-06-14T08:10:57.364Z,140.63
2018-06-14T08:11:57.261Z,151.88
2018-06-14T08:12:57.181Z,157.50
2018-06-14T08:13:57.118Z,157.50
2018-06-14T08:14:57.062Z,163.13
2018-06-14T08:15:56.999Z,163.13
2018-06-14T08:16:56.940Z,174.38
2018-06-14T08:17:56.884Z,185.63
2018-06-14T08:18:56.819Z,185.63
2018-06-14T08:19:56.756Z,191.25
2018-06-14T08:20:56.700Z,185.63
2018-06-14T08:21:56.635Z,180.00
2018-06-14T08:22:56.577Z,174.38
2018-06-14T08:23:56.517Z,174.38
2018-06-14T08:24:56.456Z,174.38
2018-06-14T08:25:56.396Z,168.75
2018-06-14T08:26:56.337Z,163.13
2018-06-14T08:27:56.279Z,163.13
2018-06-14T08:28:56.218Z,163.13
2018-06-14T08:29:56.154Z,163.13
2018-06-14T08:30:56.096Z,174.38
2018-06-14T08:31:56.036Z,174.38
2018-06-14T08:32:55.976Z,174.38
2018-06-14T08:33:55.915Z,174.38
2018-06-14T08:34:55.855Z,168.75
2018-06-14T08:35:55.795Z,174.38
2018-06-14T08:36:55.736Z,180.00
2018-06-14T08:37:55.683Z,180.00
2018-06-14T08:38:55.616Z,185.63
2018-06-14T08:39:55.555Z,180.00
2018-06-14T08:40:55.494Z,180.00
2018-06-14T08:41:55.436Z,180.00
2018-06-14T08:42:55.375Z,185.63
2018-06-14T08:43:55.315Z,180.00
2018-06-14T08:44:55.337Z,174.38
2018-06-14T08:45:55.446Z,168.75
2018-06-14T08:46:55.136Z,168.75
2018-06-14T08:47:55.079Z,174.38
2018-06-14T08:48:55.017Z,174.38
2018-06-14T08:49:54.978Z,174.38
2018-06-14T08:50:55.001Z,174.38
2018-06-14T08:51:55.441Z,174.38
2018-06-14T08:52:54.778Z,168.75
2018-06-14T08:53:54.718Z,168.75
2018-06-14T08:54:54.660Z,168.75
2018-06-14T08:55:54.652Z,168.75
2018-06-14T08:56:54.538Z,168.75
2018-06-14T08:57:54.479Z,163.13
2018-06-14T08:58:54.428Z,163.13
2018-06-14T08:59:54.359Z,163.13
2018-06-14T09:00:54.304Z,163.13
2018-06-14T09:01:54.239Z,157.50
2018-06-14T09:02:54.184Z,151.88
2018-06-14T09:03:54.217Z,146.25
2018-06-14T09:04:54.073Z,140.63
2018-06-14T09:05:54.020Z,135.00
2018-06-14T09:06:53.987Z,129.38
2018-06-14T09:07:53.884Z,129.38
2018-06-14T09:08:53.822Z,123.75
2018-06-14T09:09:53.765Z,118.13
2018-06-14T09:10:53.703Z,118.13
2018-06-14T09:11:53.646Z,118.13
2018-06-14T09:12:53.584Z,112.50
2018-06-14T09:13:53.525Z,112.50
2018-06-14T09:14:53.465Z,106.88
2018-06-14T09:15:53.405Z,106.88
2018-06-14T09:16:53.346Z,106.88
2018-06-14T09:17:53.287Z,106.88
2018-06-14T09:18:53.229Z,106.88
2018-06-14T09:19:53.166Z,106.88
2018-06-14T09:20:53.105Z,106.88
2018-06-14T09:21:53.046Z,106.88
2018-06-14T09:22:52.989Z,106.88
2018-06-14T09:23:52.925Z,106.88
2018-06-14T09:24:52.883Z,106.88
2018-06-14T09:25:52.810Z,106.88
2018-06-14T09:26:52.747Z,106.88
2018-06-14T09:27:52.686Z,101.25
2018-06-14T09:28:52.626Z,101.25
2018-06-14T09:29:52.592Z,101.25
2018-06-14T09:30:52.505Z,95.63
2018-06-14T09:31:52.447Z,95.63
2018-06-14T09:32:52.386Z,95.63
2018-06-14T09:33:52.326Z,90.00
2018-06-14T09:34:52.266Z,90.00
2018-06-14T09:35:52.221Z,90.00
2018-06-14T09:36:52.147Z,90.00
2018-06-14T09:37:52.087Z,90.00
2018-06-14T09:38:52.023Z,90.00
2018-06-14T09:39:51.968Z,90.00
2018-06-14T09:40:51.904Z,90.00
2018-06-14T09:41:51.844Z,90.00
2018-06-14T09:42:51.854Z,90.00
2018-06-14T09:43:51.726Z,90.00
2018-06-14T09:44:51.663Z,90.00
2018-06-14T09:45:51.603Z,95.63
2018-06-14T09:46:51.549Z,95.63
2018-06-14T09:47:51.487Z,101.25
2018-06-14T09:48:51.438Z,101.25
2018-06-14T09:49:51.362Z,101.25
2018-06-14T09:50:51.304Z,106.88
2018-06-14T09:51:51.245Z,106.88
2018-06-14T09:52:51.181Z,106.88
2018-06-14T09:53:51.121Z,106.88
2018-06-14T09:54:51.062Z,106.88
2018-06-14T09:55:51.002Z,112.50
2018-06-14T09:56:50.941Z,112.50
2018-06-14T09:57:50.880Z,106.88
2018-06-14T09:58:50.823Z,106.88
2018-06-14T09:59:50.760Z,101.25
2018-06-14T10:00:50.699Z,95.63
2018-06-14T10:01:50.641Z,95.63
2018-06-14T10:02:50.578Z,90.00
2018-06-14T10:03:50.519Z,90.00
2018-06-14T10:04:50.457Z,90.00
2018-06-14T10:05:50.396Z,84.38
2018-06-14T10:06:50.339Z,84.38
2018-06-14T10:07:50.275Z,84.38
2018-06-14T10:08:50.216Z,84.38
2018-06-14T10:09:50.155Z,84.38
2018-06-14T10:10:50.096Z,84.38
2018-06-14T10:11:50.037Z,84.38
2018-06-14T10:12:49.975Z,84.38
2018-06-14T10:13:49.914Z,84.38
2018-06-14T10:14:49.855Z,84.38
2018-06-14T10:15:49.795Z,84.38
2018-06-14T10:16:49.734Z,84.38
2018-06-14T10:17:49.670Z,90.00
2018-06-14T10:18:49.616Z,90.00
2018-06-14T10:19:49.556Z,90.00
2018-06-14T10:20:49.492Z,90.00
2018-06-14T10:21:49.495Z,90.00
2018-06-14T10:22:49.373Z,90.00
2018-06-14T10:23:49.313Z,90.00
2018-06-14T10:24:49.258Z,95.63
2018-06-14T10:25:49.202Z,95.63
2018-06-14T10:26:49.134Z,95.63
2018-06-14T10:27:49.073Z,101.25
2018-06-14T10:28:49.011Z,101.25
2018-06-14T10:29:48.952Z,106.88
2018-06-14T10:30:48.890Z,106.88
2018-06-14T10:31:48.893Z,112.50
2018-06-14T10:32:48.921Z,112.50
2018-06-14T10:33:48.812Z,112.50
2018-06-14T10:34:48.659Z,118.13
2018-06-14T10:35:48.598Z,118.13
2018-06-14T10:36:48.531Z,123.75
2018-06-14T10:37:48.467Z,123.75
2018-06-14T10:38:48.405Z,123.75
2018-06-14T10:39:48.350Z,123.75
2018-06-14T10:40:48.289Z,123.75
2018-06-14T10:41:48.253Z,123.75
2018-06-14T10:42:48.169Z,118.13
2018-06-14T10:43:48.109Z,118.13
2018-06-14T10:44:48.094Z,112.50
2018-06-14T10:45:48.014Z,112.50
2018-06-14T10:46:48.032Z,112.50
2018-06-14T10:47:47.991Z,112.50
2018-06-14T10:48:47.808Z,112.50
2018-06-14T10:49:47.750Z,112.50
2018-06-14T10:50:47.688Z,112.50
2018-06-14T10:51:47.627Z,118.13
2018-06-14T10:52:47.588Z,118.13
2018-06-14T10:53:47.508Z,123.75
2018-06-14T10:54:47.713Z,123.75
2018-06-14T10:55:47.388Z,129.38
2018-06-14T10:56:47.326Z,129.38
2018-06-14T10:57:47.266Z,135.00
2018-06-14T10:58:47.208Z,135.00
2018-06-14T10:59:47.148Z,140.63
2018-06-14T11:00:47.087Z,135.00
2018-06-14T11:01:47.040Z,140.63
2018-06-14T11:02:46.966Z,140.63
2018-06-14T11:03:46.908Z,140.63
2018-06-14T11:04:46.848Z,135.00
2018-06-14T11:05:46.787Z,135.00
2018-06-14T11:06:46.727Z,135.00
2018-06-14T11:07:46.668Z,129.38
2018-06-14T11:08:46.609Z,129.38
2018-06-14T11:09:46.549Z,135.00
2018-06-14T11:10:46.489Z,135.00
2018-06-14T11:11:46.428Z,140.63
2018-06-14T11:12:46.371Z,146.25
2018-06-14T11:13:46.311Z,146.25
2018-06-14T11:14:46.247Z,146.25
2018-06-14T11:15:46.189Z,151.88
2018-06-14T11:16:46.127Z,151.88
2018-06-14T11:17:46.068Z,151.88
2018-06-14T11:18:46.009Z,157.50
2018-06-14T11:19:45.950Z,157.50
2018-06-14T11:20:45.890Z,157.50
2018-06-14T11:21:45.829Z,157.50
2018-06-14T11:22:45.771Z,157.50
2018-06-14T11:23:45.713Z,157.50
2018-06-14T11:24:45.651Z,151.88
2018-06-14T11:25:45.591Z,146.25
2018-06-14T11:26:45.532Z,146.25
2018-06-14T11:27:45.472Z,140.63
2018-06-14T11:28:45.414Z,140.63
2018-06-14T11:29:45.354Z,140.63
2018-06-14T11:30:45.294Z,135.00
2018-06-14T11:31:45.235Z,140.63
2018-06-14T11:32:45.176Z,135.00
2018-06-14T11:33:45.118Z,140.63
2018-06-14T11:34:45.057Z,140.63
2018-06-14T11:35:44.996Z,146.25
2018-06-14T11:36:44.937Z,146.25
2018-06-14T11:37:44.878Z,151.88
2018-06-14T11:38:44.818Z,151.88
2018-06-14T11:39:44.759Z,151.88
2018-06-14T11:40:44.699Z,157.50
2018-06-14T11:41:44.639Z,157.50
2018-06-14T11:42:44.581Z,157.50
2018-06-14T11:43:44.519Z,163.13
2018-06-14T11:44:44.461Z,163.13
2018-06-14T11:45:44.401Z,163.13
2018-06-14T11:46:44.344Z,163.13
2018-06-14T11:47:44.283Z,163.13
2018-06-14T11:48:44.224Z,157.50
2018-06-14T11:49:44.163Z,151.88
2018-06-14T11:50:44.103Z,146.25
2018-06-14T11:51:44.049Z,140.63
2018-06-14T11:52:43.982Z,129.38
2018-06-14T11:53:43.923Z,123.75
2018-06-14T11:54:43.868Z,118.13
2018-06-14T11:55:43.807Z,118.13
2018-06-14T11:56:43.750Z,112.50
2018-06-14T11:57:43.688Z,112.50
2018-06-14T11:58:43.627Z,106.88
2018-06-14T11:59:43.572Z,106.88
2018-06-14T12:00:43.508Z,106.88
2018-06-14T12:01:43.453Z,112.50
2018-06-14T12:02:43.390Z,112.50
2018-06-14T12:03:43.332Z,118.13
2018-06-14T12:04:43.273Z,118.13
2018-06-14T12:05:43.214Z,123.75
2018-06-14T12:06:43.153Z,123.75
2018-06-14T12:07:43.097Z,123.75
2018-06-14T12:08:43.036Z,123.75
2018-06-14T12:09:42.981Z,123.75
2018-06-14T12:10:42.915Z,123.75
2018-06-14T12:11:42.856Z,123.75
2018-06-14T12:12:42.795Z,129.38
2018-06-14T12:13:42.736Z,129.38
2018-06-14T12:14:42.679Z,135.00
2018-06-14T12:15:42.617Z,135.00
2018-06-14T12:16:42.559Z,140.63
2018-06-14T12:17:42.499Z,146.25
2018-06-14T12:18:42.442Z,151.88
2018-06-14T12:19:42.381Z,157.50
2018-06-14T12:20:42.321Z,163.13
2018-06-14T12:21:42.260Z,168.75
2018-06-14T12:22:42.201Z,180.00
2018-06-14T12:23:42.144Z,185.63
2018-06-14T12:24:42.086Z,191.25
2018-06-14T12:25:42.024Z,202.50
2018-06-14T12:26:41.964Z,208.13
2018-06-14T12:27:41.905Z,208.13
2018-06-14T12:28:41.846Z,213.75
2018-06-14T12:29:41.788Z,219.38
2018-06-14T12:30:41.728Z,241.88
2018-06-14T12:31:41.675Z,236.25
2018-06-14T12:32:41.610Z,219.38
2018-06-14T12:33:41.551Z,208.13
2018-06-14T12:34:41.495Z,208.13
2018-06-14T12:35:41.433Z,213.75
2018-06-14T12:36:41.375Z,225.00
2018-06-14T12:37:41.364Z,219.38
2018-06-14T12:38:41.255Z,219.38
2018-06-14T12:39:41.197Z,219.38
2018-06-14T12:40:41.137Z,219.38
2018-06-14T12:41:41.076Z,208.13
2018-06-14T12:42:41.021Z,202.50
2018-06-14T12:43:40.966Z,202.50
2018-06-14T12:44:40.905Z,196.88
2018-06-14T12:45:40.865Z,196.88
2018-06-14T12:46:40.785Z,191.25
2018-06-14T12:47:40.727Z,191.25
2018-06-14T12:48:40.670Z,185.63